sensor_id;sensor_type;location;lat;lon;timestamp;P1;durP1;ratioP1;P2;durP2;ratioP2
61291;SDS011;47165;42.664;23.368;2022-08-21T00:00:56;8.25;;;4.28;;
61291;SDS011;47165;42.664;23.368;2022-08-21T00:03:22;10.80;;;4.70;;
61291;SDS011;47165;42.664;23.368;2022-08-21T00:05:49;14.60;;;5.35;;
61291;SDS011;47165;42.664;23.368;2022-08-21T00:08:19;11.05;;;5.18;;
61291;SDS011;47165;42.664;23.368;2022-08-21T00:10:45;7.40;;;4.13;;
61291;SDS011;47165;42.664;23.368;2022-08-21T00:13:12;16.40;;;5.82;;
61291;SDS011;47165;42.664;23.368;2022-08-21T00:15:39;12.32;;;5.35;;
61291;SDS011;47165;42.664;23.368;2022-08-21T00:18:06;12.38;;;5.95;;
61291;SDS011;47165;42.664;23.368;2022-08-21T00:20:34;11.35;;;5.15;;
61291;SDS011;47165;42.664;23.368;2022-08-21T00:23:00;9.52;;;4.95;;
61291;SDS011;47165;42.664;23.368;2022-08-21T00:25:26;14.80;;;5.28;;
61291;SDS011;47165;42.664;23.368;2022-08-21T00:27:52;12.15;;;5.35;;
61291;SDS011;47165;42.664;23.368;2022-08-21T00:30:19;10.45;;;5.53;;
61291;SDS011;47165;42.664;23.368;2022-08-21T00:32:46;9.75;;;4.97;;
61291;SDS011;47165;42.664;23.368;2022-08-21T00:35:13;9.95;;;4.75;;
61291;SDS011;47165;42.664;23.368;2022-08-21T00:37:41;12.07;;;5.18;;
61291;SDS011;47165;42.664;23.368;2022-08-21T00:40:08;9.68;;;4.68;;
61291;SDS011;47165;42.664;23.368;2022-08-21T00:42:36;9.95;;;4.65;;
61291;SDS011;47165;42.664;23.368;2022-08-21T00:45:02;7.85;;;4.72;;
61291;SDS011;47165;42.664;23.368;2022-08-21T00:47:28;9.85;;;4.93;;
61291;SDS011;47165;42.664;23.368;2022-08-21T00:49:54;8.52;;;4.05;;
61291;SDS011;47165;42.664;23.368;2022-08-21T00:52:20;9.10;;;4.80;;
61291;SDS011;47165;42.664;23.368;2022-08-21T00:54:49;7.88;;;4.35;;
61291;SDS011;47165;42.664;23.368;2022-08-21T00:57:21;6.78;;;4.05;;
61291;SDS011;47165;42.664;23.368;2022-08-21T00:59:51;7.38;;;4.50;;
61291;SDS011;47165;42.664;23.368;2022-08-21T01:02:19;9.02;;;3.85;;
61291;SDS011;47165;42.664;23.368;2022-08-21T01:04:45;8.75;;;4.32;;
61291;SDS011;47165;42.664;23.368;2022-08-21T01:07:11;11.40;;;5.00;;
61291;SDS011;47165;42.664;23.368;2022-08-21T01:09:37;9.02;;;5.38;;
61291;SDS011;47165;42.664;23.368;2022-08-21T01:12:03;8.35;;;4.47;;
61291;SDS011;47165;42.664;23.368;2022-08-21T01:14:30;9.70;;;4.68;;
61291;SDS011;47165;42.664;23.368;2022-08-21T01:16:56;9.13;;;5.25;;
61291;SDS011;47165;42.664;23.368;2022-08-21T01:19:24;10.02;;;4.57;;
61291;SDS011;47165;42.664;23.368;2022-08-21T01:21:50;11.55;;;4.97;;
61291;SDS011;47165;42.664;23.368;2022-08-21T01:24:16;10.32;;;4.45;;
61291;SDS011;47165;42.664;23.368;2022-08-21T01:26:42;8.38;;;5.18;;
61291;SDS011;47165;42.664;23.368;2022-08-21T01:29:16;13.00;;;5.00;;
61291;SDS011;47165;42.664;23.368;2022-08-21T01:32:08;9.05;;;4.53;;
61291;SDS011;47165;42.664;23.368;2022-08-21T01:34:37;11.05;;;4.95;;
61291;SDS011;47165;42.664;23.368;2022-08-21T01:37:05;9.80;;;4.70;;
61291;SDS011;47165;42.664;23.368;2022-08-21T01:39:31;9.70;;;4.82;;
61291;SDS011;47165;42.664;23.368;2022-08-21T01:41:57;11.90;;;5.60;;
61291;SDS011;47165;42.664;23.368;2022-08-21T01:44:23;10.82;;;6.10;;
61291;SDS011;47165;42.664;23.368;2022-08-21T01:46:50;10.35;;;5.68;;
61291;SDS011;47165;42.664;23.368;2022-08-21T01:49:16;11.18;;;6.13;;
61291;SDS011;47165;42.664;23.368;2022-08-21T01:51:42;13.90;;;5.97;;
61291;SDS011;47165;42.664;23.368;2022-08-21T01:54:08;12.43;;;6.18;;
61291;SDS011;47165;42.664;23.368;2022-08-21T01:56:45;10.30;;;5.72;;
61291;SDS011;47165;42.664;23.368;2022-08-21T01:59:12;9.43;;;5.40;;
61291;SDS011;47165;42.664;23.368;2022-08-21T02:01:37;9.95;;;4.88;;
61291;SDS011;47165;42.664;23.368;2022-08-21T02:04:06;12.18;;;5.18;;
61291;SDS011;47165;42.664;23.368;2022-08-21T02:06:33;13.52;;;5.43;;
61291;SDS011;47165;42.664;23.368;2022-08-21T02:08:58;9.55;;;4.80;;
61291;SDS011;47165;42.664;23.368;2022-08-21T02:11:24;8.60;;;4.25;;
61291;SDS011;47165;42.664;23.368;2022-08-21T02:13:49;9.10;;;5.25;;
61291;SDS011;47165;42.664;23.368;2022-08-21T02:16:15;11.82;;;5.28;;
61291;SDS011;47165;42.664;23.368;2022-08-21T02:18:40;15.68;;;4.93;;
61291;SDS011;47165;42.664;23.368;2022-08-21T02:21:06;15.07;;;5.72;;
61291;SDS011;47165;42.664;23.368;2022-08-21T02:23:32;16.23;;;6.38;;
61291;SDS011;47165;42.664;23.368;2022-08-21T02:25:58;10.38;;;5.75;;
61291;SDS011;47165;42.664;23.368;2022-08-21T02:28:29;14.20;;;6.15;;
61291;SDS011;47165;42.664;23.368;2022-08-21T02:30:55;12.00;;;5.75;;
61291;SDS011;47165;42.664;23.368;2022-08-21T02:33:21;14.38;;;5.68;;
61291;SDS011;47165;42.664;23.368;2022-08-21T02:35:48;15.02;;;5.68;;
61291;SDS011;47165;42.664;23.368;2022-08-21T02:38:16;11.15;;;6.35;;
61291;SDS011;47165;42.664;23.368;2022-08-21T02:40:45;13.88;;;6.40;;
61291;SDS011;47165;42.664;23.368;2022-08-21T02:43:11;14.65;;;6.65;;
61291;SDS011;47165;42.664;23.368;2022-08-21T02:45:38;14.30;;;7.07;;
61291;SDS011;47165;42.664;23.368;2022-08-21T02:48:06;16.67;;;7.88;;
61291;SDS011;47165;42.664;23.368;2022-08-21T02:50:35;15.35;;;6.57;;
61291;SDS011;47165;42.664;23.368;2022-08-21T02:53:03;14.00;;;6.65;;
61291;SDS011;47165;42.664;23.368;2022-08-21T02:55:31;15.82;;;6.05;;
61291;SDS011;47165;42.664;23.368;2022-08-21T02:57:57;12.85;;;6.05;;
61291;SDS011;47165;42.664;23.368;2022-08-21T03:00:24;11.13;;;5.60;;
61291;SDS011;47165;42.664;23.368;2022-08-21T03:02:51;12.30;;;6.28;;
61291;SDS011;47165;42.664;23.368;2022-08-21T03:05:18;10.27;;;5.25;;
61291;SDS011;47165;42.664;23.368;2022-08-21T03:07:44;18.13;;;6.82;;
61291;SDS011;47165;42.664;23.368;2022-08-21T03:10:11;14.63;;;5.53;;
61291;SDS011;47165;42.664;23.368;2022-08-21T03:12:37;8.15;;;4.85;;
61291;SDS011;47165;42.664;23.368;2022-08-21T03:15:07;11.88;;;5.50;;
61291;SDS011;47165;42.664;23.368;2022-08-21T03:17:35;12.63;;;5.68;;
61291;SDS011;47165;42.664;23.368;2022-08-21T03:20:00;9.07;;;4.20;;
61291;SDS011;47165;42.664;23.368;2022-08-21T03:22:28;12.30;;;4.57;;
61291;SDS011;47165;42.664;23.368;2022-08-21T03:24:53;6.43;;;4.07;;
61291;SDS011;47165;42.664;23.368;2022-08-21T03:27:19;6.60;;;4.40;;
61291;SDS011;47165;42.664;23.368;2022-08-21T03:29:44;4.63;;;3.20;;
61291;SDS011;47165;42.664;23.368;2022-08-21T03:32:10;7.88;;;3.85;;
61291;SDS011;47165;42.664;23.368;2022-08-21T03:34:36;8.52;;;4.63;;
61291;SDS011;47165;42.664;23.368;2022-08-21T03:37:03;6.28;;;3.83;;
61291;SDS011;47165;42.664;23.368;2022-08-21T03:39:30;6.90;;;4.13;;
61291;SDS011;47165;42.664;23.368;2022-08-21T03:41:55;11.70;;;4.00;;
61291;SDS011;47165;42.664;23.368;2022-08-21T03:44:21;11.88;;;4.28;;
61291;SDS011;47165;42.664;23.368;2022-08-21T03:46:47;8.25;;;4.43;;
61291;SDS011;47165;42.664;23.368;2022-08-21T03:49:12;7.38;;;4.03;;
61291;SDS011;47165;42.664;23.368;2022-08-21T03:51:38;8.75;;;4.15;;
61291;SDS011;47165;42.664;23.368;2022-08-21T03:54:03;10.23;;;4.53;;
61291;SDS011;47165;42.664;23.368;2022-08-21T03:56:29;5.85;;;3.17;;
61291;SDS011;47165;42.664;23.368;2022-08-21T03:58:55;10.52;;;3.30;;
61291;SDS011;47165;42.664;23.368;2022-08-21T04:01:21;7.30;;;2.92;;
61291;SDS011;47165;42.664;23.368;2022-08-21T04:03:47;6.15;;;3.10;;
61291;SDS011;47165;42.664;23.368;2022-08-21T04:06:12;9.60;;;3.63;;
61291;SDS011;47165;42.664;23.368;2022-08-21T04:08:37;4.45;;;2.90;;
61291;SDS011;47165;42.664;23.368;2022-08-21T04:11:03;7.10;;;3.72;;
61291;SDS011;47165;42.664;23.368;2022-08-21T04:13:30;5.93;;;3.08;;
61291;SDS011;47165;42.664;23.368;2022-08-21T04:15:56;8.43;;;4.03;;
61291;SDS011;47165;42.664;23.368;2022-08-21T04:18:23;8.07;;;4.15;;
61291;SDS011;47165;42.664;23.368;2022-08-21T04:20:49;6.93;;;3.72;;
61291;SDS011;47165;42.664;23.368;2022-08-21T04:23:18;8.07;;;3.97;;
61291;SDS011;47165;42.664;23.368;2022-08-21T04:25:44;8.85;;;5.22;;
61291;SDS011;47165;42.664;23.368;2022-08-21T04:28:10;8.55;;;4.13;;
61291;SDS011;47165;42.664;23.368;2022-08-21T04:30:35;9.70;;;4.35;;
61291;SDS011;47165;42.664;23.368;2022-08-21T04:33:01;10.32;;;4.93;;
61291;SDS011;47165;42.664;23.368;2022-08-21T04:35:28;7.05;;;4.38;;
61291;SDS011;47165;42.664;23.368;2022-08-21T04:37:53;7.32;;;4.68;;
61291;SDS011;47165;42.664;23.368;2022-08-21T04:40:20;10.45;;;4.93;;
61291;SDS011;47165;42.664;23.368;2022-08-21T04:42:48;8.02;;;4.05;;
61291;SDS011;47165;42.664;23.368;2022-08-21T04:48:15;9.82;;;5.18;;
61291;SDS011;47165;42.664;23.368;2022-08-21T04:53:26;6.68;;;3.78;;
61291;SDS011;47165;42.664;23.368;2022-08-21T04:55:56;9.35;;;5.07;;
61291;SDS011;47165;42.664;23.368;2022-08-21T04:58:25;9.70;;;4.47;;
61291;SDS011;47165;42.664;23.368;2022-08-21T05:00:53;6.88;;;3.80;;
61291;SDS011;47165;42.664;23.368;2022-08-21T05:03:20;7.43;;;5.35;;
61291;SDS011;47165;42.664;23.368;2022-08-21T05:05:47;9.73;;;4.50;;
61291;SDS011;47165;42.664;23.368;2022-08-21T05:08:14;7.72;;;4.25;;
61291;SDS011;47165;42.664;23.368;2022-08-21T05:10:43;8.77;;;4.72;;
61291;SDS011;47165;42.664;23.368;2022-08-21T05:13:09;8.27;;;4.90;;
61291;SDS011;47165;42.664;23.368;2022-08-21T05:15:37;8.73;;;4.85;;
61291;SDS011;47165;42.664;23.368;2022-08-21T05:18:03;12.27;;;4.75;;
61291;SDS011;47165;42.664;23.368;2022-08-21T05:20:29;5.68;;;3.50;;
61291;SDS011;47165;42.664;23.368;2022-08-21T05:22:54;6.38;;;4.18;;
61291;SDS011;47165;42.664;23.368;2022-08-21T05:25:20;6.05;;;3.22;;
61291;SDS011;47165;42.664;23.368;2022-08-21T05:27:46;5.75;;;3.55;;
61291;SDS011;47165;42.664;23.368;2022-08-21T05:30:11;8.00;;;3.28;;
61291;SDS011;47165;42.664;23.368;2022-08-21T05:32:37;8.93;;;4.30;;
61291;SDS011;47165;42.664;23.368;2022-08-21T05:35:06;8.30;;;4.05;;
61291;SDS011;47165;42.664;23.368;2022-08-21T05:37:32;9.35;;;3.72;;
61291;SDS011;47165;42.664;23.368;2022-08-21T05:39:58;6.60;;;3.65;;
61291;SDS011;47165;42.664;23.368;2022-08-21T05:42:24;8.82;;;3.60;;
61291;SDS011;47165;42.664;23.368;2022-08-21T05:44:50;5.55;;;3.92;;
61291;SDS011;47165;42.664;23.368;2022-08-21T05:47:15;7.10;;;4.30;;
61291;SDS011;47165;42.664;23.368;2022-08-21T05:49:40;8.27;;;4.30;;
61291;SDS011;47165;42.664;23.368;2022-08-21T05:52:06;7.57;;;4.70;;
61291;SDS011;47165;42.664;23.368;2022-08-21T05:54:31;9.32;;;4.72;;
61291;SDS011;47165;42.664;23.368;2022-08-21T05:56:57;10.98;;;4.68;;
61291;SDS011;47165;42.664;23.368;2022-08-21T05:59:22;9.15;;;4.13;;
61291;SDS011;47165;42.664;23.368;2022-08-21T06:01:48;8.68;;;5.50;;
61291;SDS011;47165;42.664;23.368;2022-08-21T06:04:14;10.27;;;5.13;;
61291;SDS011;47165;42.664;23.368;2022-08-21T06:06:40;15.02;;;6.20;;
61291;SDS011;47165;42.664;23.368;2022-08-21T06:09:06;10.70;;;5.72;;
61291;SDS011;47165;42.664;23.368;2022-08-21T06:11:32;8.50;;;5.18;;
61291;SDS011;47165;42.664;23.368;2022-08-21T06:13:58;16.25;;;5.57;;
61291;SDS011;47165;42.664;23.368;2022-08-21T06:16:25;8.05;;;5.07;;
61291;SDS011;47165;42.664;23.368;2022-08-21T06:18:51;8.68;;;5.32;;
61291;SDS011;47165;42.664;23.368;2022-08-21T06:21:16;6.90;;;4.53;;
61291;SDS011;47165;42.664;23.368;2022-08-21T06:23:42;8.35;;;4.97;;
61291;SDS011;47165;42.664;23.368;2022-08-21T06:26:08;10.02;;;5.95;;
61291;SDS011;47165;42.664;23.368;2022-08-21T06:28:35;10.73;;;5.80;;
61291;SDS011;47165;42.664;23.368;2022-08-21T06:31:00;12.65;;;6.38;;
61291;SDS011;47165;42.664;23.368;2022-08-21T06:33:26;12.00;;;5.57;;
61291;SDS011;47165;42.664;23.368;2022-08-21T06:35:52;12.48;;;5.85;;
61291;SDS011;47165;42.664;23.368;2022-08-21T06:38:17;7.28;;;4.95;;
61291;SDS011;47165;42.664;23.368;2022-08-21T06:40:43;10.45;;;5.90;;
61291;SDS011;47165;42.664;23.368;2022-08-21T06:43:09;12.10;;;5.80;;
61291;SDS011;47165;42.664;23.368;2022-08-21T06:45:40;9.20;;;5.38;;
61291;SDS011;47165;42.664;23.368;2022-08-21T06:48:06;9.23;;;4.65;;
61291;SDS011;47165;42.664;23.368;2022-08-21T06:50:37;7.32;;;5.13;;
61291;SDS011;47165;42.664;23.368;2022-08-21T06:53:08;8.73;;;5.43;;
61291;SDS011;47165;42.664;23.368;2022-08-21T06:55:40;11.63;;;5.45;;
61291;SDS011;47165;42.664;23.368;2022-08-21T06:58:07;13.50;;;5.80;;
61291;SDS011;47165;42.664;23.368;2022-08-21T07:00:33;12.02;;;6.30;;
61291;SDS011;47165;42.664;23.368;2022-08-21T07:02:59;9.90;;;5.20;;
61291;SDS011;47165;42.664;23.368;2022-08-21T07:05:25;7.43;;;4.70;;
61291;SDS011;47165;42.664;23.368;2022-08-21T07:07:52;10.35;;;5.15;;
61291;SDS011;47165;42.664;23.368;2022-08-21T07:10:18;8.98;;;4.63;;
61291;SDS011;47165;42.664;23.368;2022-08-21T07:12:43;9.52;;;4.75;;
61291;SDS011;47165;42.664;23.368;2022-08-21T07:15:09;9.98;;;4.57;;
61291;SDS011;47165;42.664;23.368;2022-08-21T07:17:35;8.82;;;4.20;;
61291;SDS011;47165;42.664;23.368;2022-08-21T07:20:00;9.27;;;4.53;;
61291;SDS011;47165;42.664;23.368;2022-08-21T07:22:26;8.85;;;4.45;;
61291;SDS011;47165;42.664;23.368;2022-08-21T07:24:52;8.57;;;4.07;;
61291;SDS011;47165;42.664;23.368;2022-08-21T07:27:19;7.10;;;3.88;;
61291;SDS011;47165;42.664;23.368;2022-08-21T07:29:44;7.15;;;3.30;;
61291;SDS011;47165;42.664;23.368;2022-08-21T07:32:09;8.05;;;4.20;;
61291;SDS011;47165;42.664;23.368;2022-08-21T07:34:35;10.38;;;5.35;;
61291;SDS011;47165;42.664;23.368;2022-08-21T07:37:00;11.85;;;4.65;;
61291;SDS011;47165;42.664;23.368;2022-08-21T07:39:26;6.07;;;4.18;;
61291;SDS011;47165;42.664;23.368;2022-08-21T07:41:51;11.05;;;4.78;;
61291;SDS011;47165;42.664;23.368;2022-08-21T07:44:17;14.10;;;5.05;;
61291;SDS011;47165;42.664;23.368;2022-08-21T07:46:42;11.70;;;4.20;;
61291;SDS011;47165;42.664;23.368;2022-08-21T07:49:07;9.13;;;4.32;;
61291;SDS011;47165;42.664;23.368;2022-08-21T07:51:33;8.65;;;4.00;;
61291;SDS011;47165;42.664;23.368;2022-08-21T07:53:59;10.10;;;5.40;;
61291;SDS011;47165;42.664;23.368;2022-08-21T07:56:26;6.68;;;3.85;;
61291;SDS011;47165;42.664;23.368;2022-08-21T07:58:52;9.40;;;4.78;;
61291;SDS011;47165;42.664;23.368;2022-08-21T08:01:18;6.55;;;4.03;;
61291;SDS011;47165;42.664;23.368;2022-08-21T08:03:44;6.60;;;4.47;;
61291;SDS011;47165;42.664;23.368;2022-08-21T08:06:10;9.00;;;4.88;;
61291;SDS011;47165;42.664;23.368;2022-08-21T08:08:38;11.07;;;4.78;;
61291;SDS011;47165;42.664;23.368;2022-08-21T08:11:04;7.15;;;4.35;;
61291;SDS011;47165;42.664;23.368;2022-08-21T08:13:30;8.55;;;5.32;;
61291;SDS011;47165;42.664;23.368;2022-08-21T08:15:56;6.82;;;3.97;;
61291;SDS011;47165;42.664;23.368;2022-08-21T08:18:21;9.38;;;4.38;;
61291;SDS011;47165;42.664;23.368;2022-08-21T08:20:47;9.77;;;4.18;;
61291;SDS011;47165;42.664;23.368;2022-08-21T08:23:13;12.10;;;5.20;;
61291;SDS011;47165;42.664;23.368;2022-08-21T08:25:39;10.93;;;5.97;;
61291;SDS011;47165;42.664;23.368;2022-08-21T08:28:05;16.88;;;6.28;;
61291;SDS011;47165;42.664;23.368;2022-08-21T08:30:32;12.13;;;6.43;;
61291;SDS011;47165;42.664;23.368;2022-08-21T08:32:57;14.27;;;6.88;;
61291;SDS011;47165;42.664;23.368;2022-08-21T08:35:24;10.93;;;6.63;;
61291;SDS011;47165;42.664;23.368;2022-08-21T08:37:50;16.33;;;6.68;;
61291;SDS011;47165;42.664;23.368;2022-08-21T08:40:39;9.65;;;5.72;;
61291;SDS011;47165;42.664;23.368;2022-08-21T08:43:09;10.05;;;5.90;;
61291;SDS011;47165;42.664;23.368;2022-08-21T08:45:36;9.15;;;6.07;;
61291;SDS011;47165;42.664;23.368;2022-08-21T08:48:05;13.55;;;5.63;;
61291;SDS011;47165;42.664;23.368;2022-08-21T08:50:42;6.63;;;4.68;;
61291;SDS011;47165;42.664;23.368;2022-08-21T08:53:14;9.82;;;4.90;;
61291;SDS011;47165;42.664;23.368;2022-08-21T08:55:45;9.93;;;5.33;;
61291;SDS011;47165;42.664;23.368;2022-08-21T08:58:44;10.45;;;5.40;;
61291;SDS011;47165;42.664;23.368;2022-08-21T09:01:12;10.52;;;5.00;;
61291;SDS011;47165;42.664;23.368;2022-08-21T09:03:42;8.23;;;4.80;;
61291;SDS011;47165;42.664;23.368;2022-08-21T09:11:48;13.98;;;5.30;;
61291;SDS011;47165;42.664;23.368;2022-08-21T09:25:50;8.77;;;4.70;;
61291;SDS011;47165;42.664;23.368;2022-08-21T09:28:18;8.27;;;5.30;;
61291;SDS011;47165;42.664;23.368;2022-08-21T09:30:43;8.27;;;4.93;;
61291;SDS011;47165;42.664;23.368;2022-08-21T09:33:12;8.98;;;5.13;;
61291;SDS011;47165;42.664;23.368;2022-08-21T09:35:47;9.55;;;4.70;;
61291;SDS011;47165;42.664;23.368;2022-08-21T09:38:26;6.60;;;4.82;;
61291;SDS011;47165;42.664;23.368;2022-08-21T09:40:59;7.90;;;3.97;;
61291;SDS011;47165;42.664;23.368;2022-08-21T09:43:30;11.27;;;4.18;;
61291;SDS011;47165;42.664;23.368;2022-08-21T09:48:39;7.97;;;4.50;;
61291;SDS011;47165;42.664;23.368;2022-08-21T09:51:09;12.55;;;5.50;;
61291;SDS011;47165;42.664;23.368;2022-08-21T09:53:39;9.57;;;4.95;;
61291;SDS011;47165;42.664;23.368;2022-08-21T09:56:19;6.85;;;4.03;;
61291;SDS011;47165;42.664;23.368;2022-08-21T09:59:19;8.57;;;4.65;;
61291;SDS011;47165;42.664;23.368;2022-08-21T10:01:56;7.00;;;3.50;;
61291;SDS011;47165;42.664;23.368;2022-08-21T10:04:28;7.32;;;4.38;;
61291;SDS011;47165;42.664;23.368;2022-08-21T10:09:35;7.00;;;3.75;;
61291;SDS011;47165;42.664;23.368;2022-08-21T10:25:51;5.75;;;3.75;;
61291;SDS011;47165;42.664;23.368;2022-08-21T10:28:29;6.65;;;4.07;;
61291;SDS011;47165;42.664;23.368;2022-08-21T10:31:28;8.65;;;3.63;;
61291;SDS011;47165;42.664;23.368;2022-08-21T10:36:26;5.75;;;3.35;;
61291;SDS011;47165;42.664;23.368;2022-08-21T10:41:47;6.75;;;3.28;;
61291;SDS011;47165;42.664;23.368;2022-08-21T10:54:56;7.30;;;3.50;;
61291;SDS011;47165;42.664;23.368;2022-08-21T10:57:49;6.80;;;3.65;;
61291;SDS011;47165;42.664;23.368;2022-08-21T11:00:23;5.80;;;4.07;;
61291;SDS011;47165;42.664;23.368;2022-08-21T11:05:35;9.20;;;4.22;;
61291;SDS011;47165;42.664;23.368;2022-08-21T11:08:22;8.52;;;3.40;;
61291;SDS011;47165;42.664;23.368;2022-08-21T11:14:04;9.27;;;6.03;;
61291;SDS011;47165;42.664;23.368;2022-08-21T11:16:46;7.97;;;3.67;;
61291;SDS011;47165;42.664;23.368;2022-08-21T11:22:26;8.57;;;4.15;;
61291;SDS011;47165;42.664;23.368;2022-08-21T11:25:20;5.97;;;3.70;;
61291;SDS011;47165;42.664;23.368;2022-08-21T11:27:58;8.82;;;3.40;;
61291;SDS011;47165;42.664;23.368;2022-08-21T11:30:40;6.80;;;3.65;;
61291;SDS011;47165;42.664;23.368;2022-08-21T11:33:37;4.97;;;2.90;;
61291;SDS011;47165;42.664;23.368;2022-08-21T11:36:20;8.65;;;2.88;;
61291;SDS011;47165;42.664;23.368;2022-08-21T11:38:57;4.43;;;3.05;;
61291;SDS011;47165;42.664;23.368;2022-08-21T11:41:36;6.85;;;3.88;;
61291;SDS011;47165;42.664;23.368;2022-08-21T11:52:36;9.02;;;4.07;;
61291;SDS011;47165;42.664;23.368;2022-08-21T11:55:07;11.98;;;6.45;;
61291;SDS011;47165;42.664;23.368;2022-08-21T11:57:44;6.78;;;4.75;;
61291;SDS011;47165;42.664;23.368;2022-08-21T12:00:38;9.20;;;4.43;;
61291;SDS011;47165;42.664;23.368;2022-08-21T12:03:11;7.72;;;3.95;;
61291;SDS011;47165;42.664;23.368;2022-08-21T12:05:42;12.43;;;4.43;;
61291;SDS011;47165;42.664;23.368;2022-08-21T12:08:25;5.22;;;3.42;;
61291;SDS011;47165;42.664;23.368;2022-08-21T12:11:26;6.72;;;4.00;;
61291;SDS011;47165;42.664;23.368;2022-08-21T12:16:42;7.88;;;3.75;;
61291;SDS011;47165;42.664;23.368;2022-08-21T12:19:13;5.03;;;3.92;;
61291;SDS011;47165;42.664;23.368;2022-08-21T12:21:54;11.52;;;4.82;;
61291;SDS011;47165;42.664;23.368;2022-08-21T12:24:37;5.63;;;3.50;;
61291;SDS011;47165;42.664;23.368;2022-08-21T12:30:00;4.78;;;3.42;;
61291;SDS011;47165;42.664;23.368;2022-08-21T12:32:30;5.75;;;3.55;;
61291;SDS011;47165;42.664;23.368;2022-08-21T12:35:17;4.22;;;3.42;;
61291;SDS011;47165;42.664;23.368;2022-08-21T12:37:47;6.78;;;3.47;;
61291;SDS011;47165;42.664;23.368;2022-08-21T12:40:20;4.95;;;3.60;;
61291;SDS011;47165;42.664;23.368;2022-08-21T12:42:49;6.60;;;3.80;;
61291;SDS011;47165;42.664;23.368;2022-08-21T12:46:00;5.50;;;4.28;;
61291;SDS011;47165;42.664;23.368;2022-08-21T12:48:25;7.75;;;4.57;;
61291;SDS011;47165;42.664;23.368;2022-08-21T12:53:37;8.65;;;3.65;;
61291;SDS011;47165;42.664;23.368;2022-08-21T12:56:11;4.78;;;3.28;;
61291;SDS011;47165;42.664;23.368;2022-08-21T12:58:40;5.25;;;3.35;;
61291;SDS011;47165;42.664;23.368;2022-08-21T13:01:17;8.52;;;3.55;;
61291;SDS011;47165;42.664;23.368;2022-08-21T13:03:49;7.43;;;4.28;;
61291;SDS011;47165;42.664;23.368;2022-08-21T13:06:18;4.65;;;3.63;;
61291;SDS011;47165;42.664;23.368;2022-08-21T13:08:46;6.68;;;3.80;;
61291;SDS011;47165;42.664;23.368;2022-08-21T13:11:16;8.18;;;3.67;;
61291;SDS011;47165;42.664;23.368;2022-08-21T13:13:48;11.52;;;3.83;;
61291;SDS011;47165;42.664;23.368;2022-08-21T13:16:18;4.68;;;3.28;;
61291;SDS011;47165;42.664;23.368;2022-08-21T13:18:57;4.47;;;2.97;;
61291;SDS011;47165;42.664;23.368;2022-08-21T13:21:38;6.65;;;3.75;;
61291;SDS011;47165;42.664;23.368;2022-08-21T13:24:19;8.60;;;3.13;;
61291;SDS011;47165;42.664;23.368;2022-08-21T13:26:47;7.65;;;3.80;;
61291;SDS011;47165;42.664;23.368;2022-08-21T13:29:15;4.72;;;3.58;;
61291;SDS011;47165;42.664;23.368;2022-08-21T13:31:49;6.63;;;3.95;;
61291;SDS011;47165;42.664;23.368;2022-08-21T13:34:23;8.15;;;3.75;;
61291;SDS011;47165;42.664;23.368;2022-08-21T13:36:51;6.90;;;3.47;;
61291;SDS011;47165;42.664;23.368;2022-08-21T13:39:20;10.32;;;4.00;;
61291;SDS011;47165;42.664;23.368;2022-08-21T13:41:47;4.82;;;3.33;;
61291;SDS011;47165;42.664;23.368;2022-08-21T13:46:51;5.70;;;3.30;;
61291;SDS011;47165;42.664;23.368;2022-08-21T13:49:19;6.57;;;3.22;;
61291;SDS011;47165;42.664;23.368;2022-08-21T13:51:51;6.05;;;4.18;;
61291;SDS011;47165;42.664;23.368;2022-08-21T13:54:27;7.72;;;4.65;;
61291;SDS011;47165;42.664;23.368;2022-08-21T13:56:59;5.15;;;3.20;;
61291;SDS011;47165;42.664;23.368;2022-08-21T13:59:26;7.60;;;3.78;;
61291;SDS011;47165;42.664;23.368;2022-08-21T14:01:59;6.47;;;3.80;;
61291;SDS011;47165;42.664;23.368;2022-08-21T14:04:26;7.97;;;4.30;;
61291;SDS011;47165;42.664;23.368;2022-08-21T14:07:00;7.22;;;4.45;;
61291;SDS011;47165;42.664;23.368;2022-08-21T14:09:30;6.68;;;5.00;;
61291;SDS011;47165;42.664;23.368;2022-08-21T14:11:59;7.25;;;3.83;;
61291;SDS011;47165;42.664;23.368;2022-08-21T14:14:30;8.27;;;3.63;;
61291;SDS011;47165;42.664;23.368;2022-08-21T14:16:59;4.88;;;3.28;;
61291;SDS011;47165;42.664;23.368;2022-08-21T14:19:36;7.03;;;3.45;;
61291;SDS011;47165;42.664;23.368;2022-08-21T14:24:47;7.88;;;4.18;;
61291;SDS011;47165;42.664;23.368;2022-08-21T14:27:15;5.57;;;3.63;;
61291;SDS011;47165;42.664;23.368;2022-08-21T14:29:42;7.40;;;4.18;;
61291;SDS011;47165;42.664;23.368;2022-08-21T14:32:30;5.55;;;3.22;;
61291;SDS011;47165;42.664;23.368;2022-08-21T14:34:57;6.78;;;4.03;;
61291;SDS011;47165;42.664;23.368;2022-08-21T14:37:23;5.90;;;3.55;;
61291;SDS011;47165;42.664;23.368;2022-08-21T14:39:49;4.20;;;3.60;;
61291;SDS011;47165;42.664;23.368;2022-08-21T14:42:14;6.93;;;5.03;;
61291;SDS011;47165;42.664;23.368;2022-08-21T14:44:40;8.98;;;4.00;;
61291;SDS011;47165;42.664;23.368;2022-08-21T14:47:06;7.35;;;3.72;;
61291;SDS011;47165;42.664;23.368;2022-08-21T14:49:32;7.43;;;4.38;;
61291;SDS011;47165;42.664;23.368;2022-08-21T14:51:58;6.30;;;4.05;;
61291;SDS011;47165;42.664;23.368;2022-08-21T14:54:27;7.25;;;3.25;;
61291;SDS011;47165;42.664;23.368;2022-08-21T14:56:54;7.47;;;3.88;;
61291;SDS011;47165;42.664;23.368;2022-08-21T14:59:21;5.35;;;3.67;;
61291;SDS011;47165;42.664;23.368;2022-08-21T15:01:47;5.15;;;3.47;;
61291;SDS011;47165;42.664;23.368;2022-08-21T15:04:12;6.45;;;3.70;;
61291;SDS011;47165;42.664;23.368;2022-08-21T15:06:38;10.55;;;4.53;;
61291;SDS011;47165;42.664;23.368;2022-08-21T15:09:04;9.60;;;4.53;;
61291;SDS011;47165;42.664;23.368;2022-08-21T15:11:30;8.68;;;4.10;;
61291;SDS011;47165;42.664;23.368;2022-08-21T15:13:59;10.80;;;3.45;;
61291;SDS011;47165;42.664;23.368;2022-08-21T15:16:29;9.65;;;3.35;;
61291;SDS011;47165;42.664;23.368;2022-08-21T15:18:58;7.30;;;3.92;;
61291;SDS011;47165;42.664;23.368;2022-08-21T15:21:23;9.05;;;4.07;;
61291;SDS011;47165;42.664;23.368;2022-08-21T15:23:48;5.60;;;3.90;;
61291;SDS011;47165;42.664;23.368;2022-08-21T15:26:14;6.47;;;3.60;;
61291;SDS011;47165;42.664;23.368;2022-08-21T15:28:39;7.10;;;4.78;;
61291;SDS011;47165;42.664;23.368;2022-08-21T15:31:05;6.70;;;3.83;;
61291;SDS011;47165;42.664;23.368;2022-08-21T15:33:31;6.13;;;4.15;;
61291;SDS011;47165;42.664;23.368;2022-08-21T15:35:56;9.43;;;5.60;;
61291;SDS011;47165;42.664;23.368;2022-08-21T15:38:22;15.35;;;4.72;;
61291;SDS011;47165;42.664;23.368;2022-08-21T15:40:48;7.53;;;4.93;;
61291;SDS011;47165;42.664;23.368;2022-08-21T15:43:21;10.15;;;4.20;;
61291;SDS011;47165;42.664;23.368;2022-08-21T15:45:48;10.75;;;4.60;;
61291;SDS011;47165;42.664;23.368;2022-08-21T15:48:14;7.32;;;3.63;;
61291;SDS011;47165;42.664;23.368;2022-08-21T15:50:40;8.25;;;4.93;;
61291;SDS011;47165;42.664;23.368;2022-08-21T15:53:05;7.00;;;4.65;;
61291;SDS011;47165;42.664;23.368;2022-08-21T15:55:32;6.40;;;4.55;;
61291;SDS011;47165;42.664;23.368;2022-08-21T15:57:58;7.10;;;3.92;;
61291;SDS011;47165;42.664;23.368;2022-08-21T16:00:24;6.63;;;4.45;;
61291;SDS011;47165;42.664;23.368;2022-08-21T16:02:51;8.63;;;4.15;;
61291;SDS011;47165;42.664;23.368;2022-08-21T16:05:20;6.35;;;4.45;;
61291;SDS011;47165;42.664;23.368;2022-08-21T16:07:47;6.85;;;5.15;;
61291;SDS011;47165;42.664;23.368;2022-08-21T16:10:14;14.43;;;7.40;;